sensor_id;sensor_type;location;lat;lon;timestamp;temperature;humidity
49148;DHT22;41980;45.550;12.070;2023-06-19T00:05:33;22.80;68.70
49148;DHT22;41980;45.550;12.070;2023-06-19T00:11:35;22.80;68.30
49148;DHT22;41980;45.550;12.070;2023-06-19T00:17:37;22.80;68.50
49148;DHT22;41980;45.550;12.070;2023-06-19T00:23:39;22.70;68.00
49148;DHT22;41980;45.550;12.070;2023-06-19T00:29:42;22.70;68.30
49148;DHT22;41980;45.550;12.070;2023-06-19T00:35:44;22.60;68.20
49148;DHT22;41980;45.550;12.070;2023-06-19T00:41:46;22.50;67.90
49148;DHT22;41980;45.550;12.070;2023-06-19T00:47:50;22.50;68.50
49148;DHT22;41980;45.550;12.070;2023-06-19T00:53:52;22.50;67.60
49148;DHT22;41980;45.550;12.070;2023-06-19T00:59:54;22.40;67.60
49148;DHT22;41980;45.550;12.070;2023-06-19T01:05:58;22.40;67.60
49148;DHT22;41980;45.550;12.070;2023-06-19T01:12:07;22.30;67.60
49148;DHT22;41980;45.550;12.070;2023-06-19T01:18:10;22.20;67.30
49148;DHT22;41980;45.550;12.070;2023-06-19T01:24:13;22.20;68.10
49148;DHT22;41980;45.550;12.070;2023-06-19T01:30:16;22.10;67.50
49148;DHT22;41980;45.550;12.070;2023-06-19T01:36:18;22.10;67.70
49148;DHT22;41980;45.550;12.070;2023-06-19T01:42:21;22.00;67.30
49148;DHT22;41980;45.550;12.070;2023-06-19T01:48:23;22.00;67.40
49148;DHT22;41980;45.550;12.070;2023-06-19T01:54:25;22.00;67.30
49148;DHT22;41980;45.550;12.070;2023-06-19T02:00:27;22.00;67.10
49148;DHT22;41980;45.550;12.070;2023-06-19T02:06:33;22.00;66.90
49148;DHT22;41980;45.550;12.070;2023-06-19T02:12:35;22.00;67.30
49148;DHT22;41980;45.550;12.070;2023-06-19T02:18:37;21.90;66.80
49148;DHT22;41980;45.550;12.070;2023-06-19T02:24:39;21.90;66.90
49148;DHT22;41980;45.550;12.070;2023-06-19T02:30:42;21.90;66.90
49148;DHT22;41980;45.550;12.070;2023-06-19T02:36:44;21.90;66.90
49148;DHT22;41980;45.550;12.070;2023-06-19T02:42:49;21.90;66.80
49148;DHT22;41980;45.550;12.070;2023-06-19T02:48:50;21.80;66.80
49148;DHT22;41980;45.550;12.070;2023-06-19T02:54:52;21.70;66.60
49148;DHT22;41980;45.550;12.070;2023-06-19T03:00:54;21.60;66.80
49148;DHT22;41980;45.550;12.070;2023-06-19T03:06:56;21.60;66.70
49148;DHT22;41980;45.550;12.070;2023-06-19T03:12:58;21.60;66.60
49148;DHT22;41980;45.550;12.070;2023-06-19T03:19:01;21.60;67.20
49148;DHT22;41980;45.550;12.070;2023-06-19T03:25:03;21.50;68.00
49148;DHT22;41980;45.550;12.070;2023-06-19T03:31:05;21.50;67.60
49148;DHT22;41980;45.550;12.070;2023-06-19T03:37:07;21.60;66.80
49148;DHT22;41980;45.550;12.070;2023-06-19T03:43:10;21.80;66.60
49148;DHT22;41980;45.550;12.070;2023-06-19T03:49:13;22.00;66.20
49148;DHT22;41980;45.550;12.070;2023-06-19T03:55:15;22.10;66.00
49148;DHT22;41980;45.550;12.070;2023-06-19T04:01:17;22.30;65.90
49148;DHT22;41980;45.550;12.070;2023-06-19T04:07:19;22.50;65.50
49148;DHT22;41980;45.550;12.070;2023-06-19T04:13:21;22.60;65.30
49148;DHT22;41980;45.550;12.070;2023-06-19T04:19:23;22.80;65.10
49148;DHT22;41980;45.550;12.070;2023-06-19T04:25:25;22.90;64.90
49148;DHT22;41980;45.550;12.070;2023-06-19T04:31:27;22.90;65.10
49148;DHT22;41980;45.550;12.070;2023-06-19T04:37:30;22.80;65.30
49148;DHT22;41980;45.550;12.070;2023-06-19T04:43:32;22.80;65.60
49148;DHT22;41980;45.550;12.070;2023-06-19T04:49:36;22.90;65.20
49148;DHT22;41980;45.550;12.070;2023-06-19T04:55:38;23.20;65.10
49148;DHT22;41980;45.550;12.070;2023-06-19T05:01:40;23.80;64.40
49148;DHT22;41980;45.550;12.070;2023-06-19T05:07:42;24.30;63.90
49148;DHT22;41980;45.550;12.070;2023-06-19T05:13:44;24.50;63.00
49148;DHT22;41980;45.550;12.070;2023-06-19T05:19:46;23.90;63.60
49148;DHT22;41980;45.550;12.070;2023-06-19T05:25:48;23.50;64.20
49148;DHT22;41980;45.550;12.070;2023-06-19T05:31:50;23.40;64.30
49148;DHT22;41980;45.550;12.070;2023-06-19T05:37:52;23.30;64.90
49148;DHT22;41980;45.550;12.070;2023-06-19T05:43:54;23.20;65.10
49148;DHT22;41980;45.550;12.070;2023-06-19T05:49:57;23.30;64.70
49148;DHT22;41980;45.550;12.070;2023-06-19T05:55:59;24.00;64.70
49148;DHT22;41980;45.550;12.070;2023-06-19T06:02:01;26.30;61.50
49148;DHT22;41980;45.550;12.070;2023-06-19T06:08:05;28.00;57.30
49148;DHT22;41980;45.550;12.070;2023-06-19T06:14:07;29.00;57.20
49148;DHT22;41980;45.550;12.070;2023-06-19T06:20:09;29.30;57.50
49148;DHT22;41980;45.550;12.070;2023-06-19T06:26:14;28.40;55.70
49148;DHT22;41980;45.550;12.070;2023-06-19T06:32:16;27.30;58.40
49148;DHT22;41980;45.550;12.070;2023-06-19T06:38:18;27.40;58.70
49148;DHT22;41980;45.550;12.070;2023-06-19T06:44:20;29.40;56.90
49148;DHT22;41980;45.550;12.070;2023-06-19T06:50:22;30.20;55.10
49148;DHT22;41980;45.550;12.070;2023-06-19T06:56:24;30.90;54.60
49148;DHT22;41980;45.550;12.070;2023-06-19T07:02:26;31.00;54.20
49148;DHT22;41980;45.550;12.070;2023-06-19T07:08:28;31.00;52.40
49148;DHT22;41980;45.550;12.070;2023-06-19T07:14:30;31.10;52.30
49148;DHT22;41980;45.550;12.070;2023-06-19T07:20:33;31.90;51.70
49148;DHT22;41980;45.550;12.070;2023-06-19T07:26:35;32.30;51.70
49148;DHT22;41980;45.550;12.070;2023-06-19T07:32:39;32.50;50.00
49148;DHT22;41980;45.550;12.070;2023-06-19T07:38:42;32.50;50.90
49148;DHT22;41980;45.550;12.070;2023-06-19T07:44:44;32.50;50.50
49148;DHT22;41980;45.550;12.070;2023-06-19T07:50:47;33.50;49.60
49148;DHT22;41980;45.550;12.070;2023-06-19T07:56:49;34.30;49.00
49148;DHT22;41980;45.550;12.070;2023-06-19T08:02:51;35.20;48.00
49148;DHT22;41980;45.550;12.070;2023-06-19T08:08:53;36.20;46.70
49148;DHT22;41980;45.550;12.070;2023-06-19T08:14:55;36.60;46.40
49148;DHT22;41980;45.550;12.070;2023-06-19T08:20:58;36.70;45.30
49148;DHT22;41980;45.550;12.070;2023-06-19T08:27:00;36.90;45.40
49148;DHT22;41980;45.550;12.070;2023-06-19T08:33:02;37.10;43.60
49148;DHT22;41980;45.550;12.070;2023-06-19T08:39:04;37.20;42.10
49148;DHT22;41980;45.550;12.070;2023-06-19T08:45:07;37.40;42.40
49148;DHT22;41980;45.550;12.070;2023-06-19T08:51:13;37.20;41.50
49148;DHT22;41980;45.550;12.070;2023-06-19T08:57:16;36.90;41.30
49148;DHT22;41980;45.550;12.070;2023-06-19T09:03:21;37.00;41.70
49148;DHT22;41980;45.550;12.070;2023-06-19T09:09:26;37.10;39.90
49148;DHT22;41980;45.550;12.070;2023-06-19T09:15:30;36.90;41.40
49148;DHT22;41980;45.550;12.070;2023-06-19T09:21:36;37.00;41.00
49148;DHT22;41980;45.550;12.070;2023-06-19T09:27:40;36.80;41.30
49148;DHT22;41980;45.550;12.070;2023-06-19T09:33:42;37.10;41.10
49148;DHT22;41980;45.550;12.070;2023-06-19T09:39:44;37.40;40.40
49148;DHT22;41980;45.550;12.070;2023-06-19T09:45:49;37.30;39.80
49148;DHT22;41980;45.550;12.070;2023-06-19T09:51:52;37.40;39.50
49148;DHT22;41980;45.550;12.070;2023-06-19T09:57:54;37.30;39.60
49148;DHT22;41980;45.550;12.070;2023-06-19T10:10:08;37.40;39.90
49148;DHT22;41980;45.550;12.070;2023-06-19T10:22:20;37.40;39.50
49148;DHT22;41980;45.550;12.070;2023-06-19T10:28:26;37.10;39.20
49148;DHT22;41980;45.550;12.070;2023-06-19T10:34:34;36.70;39.20
49148;DHT22;41980;45.550;12.070;2023-06-19T10:40:39;36.80;39.30
49148;DHT22;41980;45.550;12.070;2023-06-19T10:46:41;36.80;39.00
49148;DHT22;41980;45.550;12.070;2023-06-19T10:52:45;36.20;39.60
49148;DHT22;41980;45.550;12.070;2023-06-19T10:58:47;35.90;39.70
49148;DHT22;41980;45.550;12.070;2023-06-19T11:04:52;35.10;40.30
49148;DHT22;41980;45.550;12.070;2023-06-19T11:10:55;34.40;40.50
49148;DHT22;41980;45.550;12.070;2023-06-19T11:16:57;33.90;41.00
49148;DHT22;41980;45.550;12.070;2023-06-19T11:23:01;33.50;41.30
49148;DHT22;41980;45.550;12.070;2023-06-19T11:29:14;33.40;41.50
49148;DHT22;41980;45.550;12.070;2023-06-19T11:35:17;33.20;41.60
49148;DHT22;41980;45.550;12.070;2023-06-19T11:41:28;33.00;41.80
49148;DHT22;41980;45.550;12.070;2023-06-19T11:47:31;33.00;41.90
49148;DHT22;41980;45.550;12.070;2023-06-19T11:53:34;32.90;42.00
49148;DHT22;41980;45.550;12.070;2023-06-19T11:59:36;32.90;42.10
49148;DHT22;41980;45.550;12.070;2023-06-19T12:05:38;32.70;42.20
49148;DHT22;41980;45.550;12.070;2023-06-19T12:11:40;32.60;42.50
49148;DHT22;41980;45.550;12.070;2023-06-19T12:17:42;32.60;42.60
49148;DHT22;41980;45.550;12.070;2023-06-19T12:23:44;32.50;42.70
49148;DHT22;41980;45.550;12.070;2023-06-19T12:29:46;32.40;43.00
49148;DHT22;41980;45.550;12.070;2023-06-19T12:35:49;32.40;43.10
49148;DHT22;41980;45.550;12.070;2023-06-19T12:41:51;32.30;43.30
49148;DHT22;41980;45.550;12.070;2023-06-19T12:47:53;32.30;43.30
49148;DHT22;41980;45.550;12.070;2023-06-19T12:53:55;32.20;43.60
49148;DHT22;41980;45.550;12.070;2023-06-19T12:59:59;32.30;43.80
49148;DHT22;41980;45.550;12.070;2023-06-19T13:06:01;32.20;44.20
49148;DHT22;41980;45.550;12.070;2023-06-19T13:12:03;32.30;44.20
49148;DHT22;41980;45.550;12.070;2023-06-19T13:18:05;32.20;44.30
49148;DHT22;41980;45.550;12.070;2023-06-19T13:24:08;32.20;44.40
49148;DHT22;41980;45.550;12.070;2023-06-19T13:30:10;32.20;43.80
49148;DHT22;41980;45.550;12.070;2023-06-19T13:36:14;32.20;43.70
49148;DHT22;41980;45.550;12.070;2023-06-19T13:42:16;32.10;43.40
49148;DHT22;41980;45.550;12.070;2023-06-19T13:48:19;32.00;43.40
49148;DHT22;41980;45.550;12.070;2023-06-19T13:54:21;31.90;43.10
49148;DHT22;41980;45.550;12.070;2023-06-19T14:00:23;31.90;43.30
49148;DHT22;41980;45.550;12.070;2023-06-19T14:06:25;31.90;43.40
49148;DHT22;41980;45.550;12.070;2023-06-19T14:12:27;32.00;43.30
49148;DHT22;41980;45.550;12.070;2023-06-19T14:18:29;32.00;43.40
49148;DHT22;41980;45.550;12.070;2023-06-19T14:24:31;32.00;43.40
49148;DHT22;41980;45.550;12.070;2023-06-19T14:30:33;32.00;43.70
49148;DHT22;41980;45.550;12.070;2023-06-19T14:36:38;31.90;44.10
49148;DHT22;41980;45.550;12.070;2023-06-19T14:42:40;31.90;44.30
49148;DHT22;41980;45.550;12.070;2023-06-19T14:48:42;31.90;44.50
49148;DHT22;41980;45.550;12.070;2023-06-19T14:54:44;31.80;44.70
49148;DHT22;41980;45.550;12.070;2023-06-19T15:00:46;31.70;45.10
49148;DHT22;41980;45.550;12.070;2023-06-19T15:06:50;31.60;45.40
49148;DHT22;41980;45.550;12.070;2023-06-19T15:12:52;31.50;46.10
49148;DHT22;41980;45.550;12.070;2023-06-19T15:18:54;31.50;46.60
49148;DHT22;41980;45.550;12.070;2023-06-19T15:24:57;31.40;46.70
49148;DHT22;41980;45.550;12.070;2023-06-19T15:30:59;31.30;46.90
49148;DHT22;41980;45.550;12.070;2023-06-19T15:37:03;31.30;47.30
49148;DHT22;41980;45.550;12.070;2023-06-19T15:43:05;31.20;47.40
49148;DHT22;41980;45.550;12.070;2023-06-19T15:49:07;31.20;47.90
49148;DHT22;41980;45.550;12.070;2023-06-19T15:55:09;31.10;48.10
49148;DHT22;41980;45.550;12.070;2023-06-19T16:01:11;31.00;48.30
49148;DHT22;41980;45.550;12.070;2023-06-19T16:07:13;30.90;48.40
49148;DHT22;41980;45.550;12.070;2023-06-19T16:13:16;30.90;48.80
49148;DHT22;41980;45.550;12.070;2023-06-19T16:19:18;30.90;48.90
49148;DHT22;41980;45.550;12.070;2023-06-19T16:25:20;30.90;48.80
49148;DHT22;41980;45.550;12.070;2023-06-19T16:31:24;30.90;48.70
49148;DHT22;41980;45.550;12.070;2023-06-19T16:37:26;30.80;49.10
49148;DHT22;41980;45.550;12.070;2023-06-19T16:43:28;30.70;49.20
49148;DHT22;41980;45.550;12.070;2023-06-19T16:49:30;30.60;49.50
49148;DHT22;41980;45.550;12.070;2023-06-19T16:55:32;30.50;49.60
49148;DHT22;41980;45.550;12.070;2023-06-19T17:01:34;30.50;49.80
49148;DHT22;41980;45.550;12.070;2023-06-19T17:07:37;30.40;50.10
49148;DHT22;41980;45.550;12.070;2023-06-19T17:13:40;30.30;50.50
49148;DHT22;41980;45.550;12.070;2023-06-19T17:19:43;30.10;51.20
49148;DHT22;41980;45.550;12.070;2023-06-19T17:25:45;30.00;51.60
49148;DHT22;41980;45.550;12.070;2023-06-19T17:31:47;29.90;52.80
49148;DHT22;41980;45.550;12.070;2023-06-19T17:37:49;29.70;51.90
49148;DHT22;41980;45.550;12.070;2023-06-19T17:43:51;29.50;52.50
49148;DHT22;41980;45.550;12.070;2023-06-19T17:49:53;29.40;53.30
49148;DHT22;41980;45.550;12.070;2023-06-19T17:55:55;29.30;53.10
49148;DHT22;41980;45.550;12.070;2023-06-19T18:01:57;29.20;53.20
49148;DHT22;41980;45.550;12.070;2023-06-19T18:07:59;29.10;53.40
49148;DHT22;41980;45.550;12.070;2023-06-19T18:14:01;29.00;53.50
49148;DHT22;41980;45.550;12.070;2023-06-19T18:20:04;28.90;53.70
49148;DHT22;41980;45.550;12.070;2023-06-19T19:35:01;27.00;61.00
49148;DHT22;41980;45.550;12.070;2023-06-19T19:41:04;26.80;55.40
49148;DHT22;41980;45.550;12.070;2023-06-19T19:47:06;26.80;55.50
49148;DHT22;41980;45.550;12.070;2023-06-19T19:53:08;26.80;56.00
49148;DHT22;41980;45.550;12.070;2023-06-19T19:59:10;26.70;56.60
49148;DHT22;41980;45.550;12.070;2023-06-19T20:05:12;26.60;56.60
49148;DHT22;41980;45.550;12.070;2023-06-19T20:11:14;26.50;56.90
49148;DHT22;41980;45.550;12.070;2023-06-19T20:17:19;26.50;57.50
49148;DHT22;41980;45.550;12.070;2023-06-19T20:23:21;26.40;57.50
49148;DHT22;41980;45.550;12.070;2023-06-19T20:29:23;26.40;57.90
49148;DHT22;41980;45.550;12.070;2023-06-19T20:35:25;26.30;57.80
49148;DHT22;41980;45.550;12.070;2023-06-19T20:41:27;26.30;58.00
49148;DHT22;41980;45.550;12.070;2023-06-19T20:47:31;26.20;58.20
49148;DHT22;41980;45.550;12.070;2023-06-19T20:53:33;26.20;58.20
49148;DHT22;41980;45.550;12.070;2023-06-19T20:59:36;26.10;58.20
49148;DHT22;41980;45.550;12.070;2023-06-19T21:05:38;26.10;58.40
49148;DHT22;41980;45.550;12.070;2023-06-19T21:11:40;26.00;58.40
49148;DHT22;41980;45.550;12.070;2023-06-19T21:17:42;26.00;58.80
49148;DHT22;41980;45.550;12.070;2023-06-19T21:23:44;26.00;58.90
49148;DHT22;41980;45.550;12.070;2023-06-19T21:29:46;25.90;58.90
49148;DHT22;41980;45.550;12.070;2023-06-19T21:35:48;25.90;58.80
49148;DHT22;41980;45.550;12.070;2023-06-19T21:41:50;25.70;59.20
49148;DHT22;41980;45.550;12.070;2023-06-19T21:47:52;25.60;59.40
49148;DHT22;41980;45.550;12.070;2023-06-19T21:53:54;25.60;59.50
49148;DHT22;41980;45.550;12.070;2023-06-19T21:59:56;25.50;60.00
49148;DHT22;41980;45.550;12.070;2023-06-19T22:05:58;25.40;61.80
49148;DHT22;41980;45.550;12.070;2023-06-19T22:12:03;25.30;61.30
49148;DHT22;41980;45.550;12.070;2023-06-19T22:18:05;25.20;61.90
49148;DHT22;41980;45.550;12.070;2023-06-19T22:24:08;25.10;61.80
49148;DHT22;41980;45.550;12.070;2023-06-19T22:30:12;25.00;62.50
49148;DHT22;41980;45.550;12.070;2023-06-19T22:36:15;25.00;64.20
49148;DHT22;41980;45.550;12.070;2023-06-19T22:42:17;24.90;63.50
49148;DHT22;41980;45.550;12.070;2023-06-19T22:48:19;24.90;63.50
49148;DHT22;41980;45.550;12.070;2023-06-19T22:54:21;24.90;65.10
49148;DHT22;41980;45.550;12.070;2023-06-19T23:00:23;24.80;64.70
49148;DHT22;41980;45.550;12.070;2023-06-19T23:06:25;24.70;64.50
49148;DHT22;41980;45.550;12.070;2023-06-19T23:12:28;24.70;64.10
49148;DHT22;41980;45.550;12.070;2023-06-19T23:18:30;24.60;64.60
49148;DHT22;41980;45.550;12.070;2023-06-19T23:24:32;24.60;65.00
49148;DHT22;41980;45.550;12.070;2023-06-19T23:30:34;24.50;64.10
49148;DHT22;41980;45.550;12.070;2023-06-19T23:36:36;24.50;64.20
49148;DHT22;41980;45.550;12.070;2023-06-19T23:42:38;24.50;64.10
49148;DHT22;41980;45.550;12.070;2023-06-19T23:48:40;24.50;65.10
49148;DHT22;41980;45.550;12.070;2023-06-19T23:54:42;24.50;64.90
